Time;durP1;ratioP1;P1;durP2;ratioP2;P2;SDS_P1;SDS_P2;PMS_P1;PMS_P2;Temp;Humidity;BMP_temperature;BMP_pressure;BME280_temperature;BME280_humidity;BME280_pressure;Samples;Min_cycle;Max_cycle;Signal;HPM_P1;HPM_P2
2023/04/14 00:00:12;;;;;;;9.50;7.00;;;;;;;10.97;80.12;98157.26;105225;1263;73927;-23
2023/04/14 00:02:42;;;;;;;8.20;5.90;;;;;;;10.75;81.05;98155.69;104865;1263;61130;-22
2023/04/14 00:05:11;;;;;;;10.30;6.60;;;;;;;10.60;81.46;98156.19;105062;1268;61674;-22
2023/04/14 00:07:40;;;;;;;12.60;7.50;;;;;;;10.36;82.37;98152.60;104898;1263;73262;-24
2023/04/14 00:10:09;;;;;;;5.60;4.30;;;;;;;10.12;84.13;98155.67;104966;1267;75854;-23
2023/04/14 00:12:38;;;;;;;10.20;5.30;;;;;;;10.47;83.25;98149.64;105060;1266;73259;-24
2023/04/14 00:15:07;;;;;;;7.90;6.10;;;;;;;10.89;81.39;98147.41;104981;1262;61853;-24
2023/04/14 00:17:37;;;;;;;11.20;10.00;;;;;;;10.78;80.95;98147.58;104800;1269;62009;-24
2023/04/14 00:20:08;;;;;;;18.00;16.20;;;;;;;10.54;81.69;98146.05;105141;1263;74607;-23
2023/04/14 00:22:37;;;;;;;11.20;9.90;;;;;;;10.31;82.95;98141.23;104815;1270;75306;-24
2023/04/14 00:25:07;;;;;;;11.70;10.10;;;;;;;10.06;83.88;98138.31;104984;1263;74480;-24
2023/04/14 00:27:35;;;;;;;9.60;4.30;;;;;;;9.93;84.65;98134.02;105089;1263;62264;-24
2023/04/14 00:30:04;;;;;;;7.60;4.00;;;;;;;10.31;83.72;98131.67;105099;1267;61715;-24
2023/04/14 00:32:39;;;;;;;7.50;4.40;;;;;;;10.74;81.60;98134.55;104883;1263;74227;-24
2023/04/14 00:35:08;;;;;;;7.40;4.30;;;;;;;10.80;80.99;98133.80;105171;1263;75773;-23
2023/04/14 00:37:40;;;;;;;6.90;3.70;;;;;;;10.61;81.00;98133.39;105220;1263;73714;-24
2023/04/14 00:40:12;;;;;;;7.90;4.90;;;;;;;10.34;81.79;98135.21;105137;1263;61744;-24
2023/04/14 00:42:44;;;;;;;7.20;5.10;;;;;;;9.99;84.06;98135.33;104937;1267;61841;-23
2023/04/14 00:45:14;;;;;;;5.30;3.10;;;;;;;9.69;85.86;98130.83;104893;1263;74670;-24
2023/04/14 00:47:46;;;;;;;7.70;3.40;;;;;;;10.03;85.34;98132.54;105116;1263;75835;-23
2023/04/14 00:50:16;;;;;;;7.20;4.10;;;;;;;10.38;82.89;98132.65;104914;1268;72967;-24
2023/04/14 00:52:46;;;;;;;5.50;3.80;;;;;;;10.45;82.23;98127.99;104831;1263;61859;-24
2023/04/14 00:55:17;;;;;;;6.60;4.30;;;;;;;10.35;82.33;98125.60;104891;1264;61531;-23
2023/04/14 00:57:45;;;;;;;4.40;3.60;;;;;;;10.13;82.48;98128.36;104807;1263;74632;-24
2023/04/14 01:07:49;;;;;;;8.70;5.30;;;;;;;10.85;81.95;98137.14;102649;1294;599483;-24
2023/04/14 01:10:18;;;;;;;11.10;6.60;;;;;;;10.98;80.91;98139.37;104838;1267;62134;-24
2023/04/14 01:13:01;;;;;;;10.00;7.00;;;;;;;10.84;79.91;98139.92;104860;1266;61955;-24
2023/04/14 01:15:38;;;;;;;10.00;6.10;;;;;;;10.50;80.75;98138.91;105271;1266;72602;-23
2023/04/14 01:18:16;;;;;;;7.20;5.70;;;;;;;10.23;81.23;98141.84;105278;1265;74843;-24
2023/04/14 01:20:48;;;;;;;7.30;5.50;;;;;;;9.98;82.22;98151.08;103538;1259;2421108;-24
2023/04/14 01:23:31;;;;;;;4.50;3.20;;;;;;;9.77;83.68;98150.00;105336;1257;62214;-25
2023/04/14 01:26:15;;;;;;;5.80;3.20;;;;;;;10.31;83.14;98145.39;105586;1257;61247;-24
2023/04/14 01:28:54;;;;;;;5.90;4.20;;;;;;;10.75;81.06;98144.54;105529;1257;72688;-24
2023/04/14 01:31:24;;;;;;;6.40;4.00;;;;;;;10.43;81.72;98143.55;105423;1257;75899;-24
2023/04/14 01:34:07;;;;;;;7.00;4.70;;;;;;;10.28;82.43;98151.56;105584;1261;73505;-24
2023/04/14 01:36:43;;;;;;;6.70;4.00;;;;;;;10.06;83.23;98152.87;105237;1257;61877;-23
2023/04/14 01:39:15;;;;;;;9.30;5.40;;;;;;;9.80;84.38;98153.19;105384;1265;61886;-23
2023/04/14 01:41:45;;;;;;;7.80;3.50;;;;;;;9.45;86.90;98153.65;105568;1263;74524;-23
2023/04/14 01:44:15;;;;;;;5.70;3.40;;;;;;;9.85;85.91;98154.98;105428;1257;74905;-25
2023/04/14 01:46:44;;;;;;;7.90;4.20;;;;;;;10.44;83.84;98154.40;105353;1264;74523;-24
2023/04/14 01:49:13;;;;;;;9.40;4.40;;;;;;;10.41;82.45;98155.05;105517;1258;61838;-23
2023/04/14 01:51:41;;;;;;;6.70;4.70;;;;;;;10.31;82.62;98153.17;105642;1262;61660;-24
2023/04/14 01:54:11;;;;;;;7.80;5.70;;;;;;;10.07;83.38;98151.65;105517;1257;74658;-24
2023/04/14 01:56:40;;;;;;;13.20;7.10;;;;;;;9.78;84.94;98152.93;105576;1258;75827;-24
2023/04/14 01:59:10;;;;;;;8.70;4.30;;;;;;;9.57;86.17;98155.28;105568;1257;74242;-24
2023/04/14 02:01:38;;;;;;;5.80;3.50;;;;;;;10.09;85.18;98157.80;105429;1257;61190;-24
2023/04/14 02:04:07;;;;;;;8.10;4.80;;;;;;;10.54;82.54;98155.02;105583;1256;61074;-24
2023/04/14 02:06:37;;;;;;;8.20;4.60;;;;;;;10.57;81.39;98159.26;105515;1263;74480;-23
2023/04/14 02:09:09;;;;;;;7.80;4.20;;;;;;;10.34;81.70;98161.59;105453;1257;75797;-24
2023/04/14 02:11:37;;;;;;;8.20;4.90;;;;;;;10.12;82.32;98162.95;105587;1257;74175;-24
2023/04/14 02:14:06;;;;;;;8.30;5.10;;;;;;;9.72;84.70;98164.77;105576;1262;61901;-24
2023/04/14 02:16:37;;;;;;;4.40;3.10;;;;;;;9.64;84.73;98165.73;105517;1257;61130;-23
2023/04/14 02:19:07;;;;;;;6.30;3.30;;;;;;;10.14;84.23;98166.59;105487;1257;74550;-23
2023/04/14 02:21:36;;;;;;;4.20;3.50;;;;;;;10.59;81.88;98164.52;105373;1257;75726;-24
2023/04/14 02:24:07;;;;;;;4.80;3.50;;;;;;;10.63;80.80;98168.80;105290;1263;72926;-24
2023/04/14 02:26:36;;;;;;;5.80;4.20;;;;;;;10.40;81.23;98172.54;105575;1262;61269;-23
2023/04/14 02:29:10;;;;;;;6.40;4.30;;;;;;;10.16;81.98;98174.02;105442;1262;61522;-24
2023/04/14 02:31:41;;;;;;;;;;;;;;;9.99;82.44;98179.25;105286;1263;72543;-23
2023/04/14 02:34:11;;;;;;;7.30;3.90;;;;;;;9.80;83.02;98182.89;105426;1258;74765;-24
2023/04/14 02:36:50;;;;;;;3.30;2.60;;;;;;;9.56;85.04;98182.08;105513;1257;74914;-24
2023/04/14 02:39:22;;;;;;;5.00;2.70;;;;;;;10.14;84.12;98180.33;105440;1263;61948;-23
2023/04/14 02:41:57;;;;;;;5.50;3.50;;;;;;;10.66;81.68;98179.95;105550;1263;61542;-23
2023/04/14 02:44:28;;;;;;;5.50;3.80;;;;;;;10.72;80.63;98182.02;105125;1263;74760;-23
2023/04/14 02:47:05;;;;;;;5.60;3.80;;;;;;;10.52;80.63;98178.33;105176;1257;75733;-23
2023/04/14 02:49:42;;;;;;;10.10;4.60;;;;;;;10.28;81.09;98181.02;105219;1257;74121;-23
2023/04/14 02:52:11;;;;;;;9.60;4.50;;;;;;;9.99;82.60;98186.36;105297;1257;61126;-23
2023/04/14 02:54:41;;;;;;;5.40;2.80;;;;;;;9.86;82.65;98188.05;105336;1263;61362;-24
2023/04/14 02:57:09;;;;;;;4.70;3.00;;;;;;;10.32;82.71;98190.80;105555;1263;74640;-23
2023/04/14 02:59:41;;;;;;;8.40;5.10;;;;;;;10.86;80.95;98190.23;105357;1258;75809;-23
2023/04/14 03:02:11;;;;;;;7.80;5.30;;;;;;;10.88;79.73;98193.70;105542;1263;74168;-23
2023/04/14 03:04:44;;;;;;;6.80;4.90;;;;;;;10.63;79.70;98191.30;105510;1258;61859;-23
2023/04/14 03:07:35;;;;;;;8.90;5.60;;;;;;;10.31;80.54;98194.66;105565;1262;61914;-23
2023/04/14 03:10:05;;;;;;;8.40;5.20;;;;;;;10.04;81.18;98193.70;105543;1262;74380;-23
2023/04/14 03:12:38;;;;;;;6.30;4.00;;;;;;;9.79;83.17;98196.83;105484;1263;74864;-23
2023/04/14 03:15:09;;;;;;;4.70;3.60;;;;;;;10.26;82.58;98196.55;105559;1257;74077;-23
2023/04/14 03:17:37;;;;;;;14.20;4.60;;;;;;;10.72;80.85;98196.71;105166;1263;61477;-23
2023/04/14 03:20:12;;;;;;;8.40;4.40;;;;;;;10.68;80.18;98198.14;105435;1263;61623;-23
2023/04/14 03:22:43;;;;;;;7.70;3.60;;;;;;;10.56;80.46;98201.73;105459;1257;74580;-23
2023/04/14 03:25:14;;;;;;;5.50;4.30;;;;;;;10.25;80.99;98204.19;105298;1257;75880;-23
2023/04/14 03:27:44;;;;;;;6.90;3.90;;;;;;;10.01;81.74;98209.38;105246;1263;73533;-23
2023/04/14 03:30:14;;;;;;;4.40;3.10;;;;;;;9.79;83.37;98206.51;105562;1257;63916;-23
2023/04/14 03:32:43;;;;;;;6.00;3.60;;;;;;;10.24;82.56;98207.27;105277;1264;61807;-23
2023/04/14 03:35:14;;;;;;;8.60;4.20;;;;;;;10.61;81.21;98202.64;105463;1257;74182;-23
2023/04/14 03:37:43;;;;;;;6.90;3.90;;;;;;;10.66;80.58;98203.38;105281;1265;75788;-23
2023/04/14 03:40:12;;;;;;;9.50;4.30;;;;;;;10.45;80.93;98207.60;105559;1257;74112;-23
2023/04/14 03:42:45;;;;;;;9.30;5.30;;;;;;;10.18;81.85;98208.19;105436;1257;61888;-23
2023/04/14 03:45:17;;;;;;;6.00;4.30;;;;;;;9.88;83.39;98210.73;105143;1263;61761;-23
2023/04/14 03:47:45;;;;;;;4.30;3.10;;;;;;;9.72;83.78;98212.16;105320;1257;73865;-23
2023/04/14 03:50:16;;;;;;;7.50;4.10;;;;;;;10.12;83.95;98214.10;105251;1263;75683;-23
2023/04/14 03:52:45;;;;;;;7.80;4.10;;;;;;;10.47;82.93;98213.69;105564;1257;74232;-23
2023/04/14 03:55:14;;;;;;;7.50;4.40;;;;;;;10.40;82.58;98216.39;105562;1263;61177;-23
2023/04/14 03:57:47;;;;;;;7.50;4.80;;;;;;;10.24;82.28;98210.58;105531;1263;61830;-23
2023/04/14 04:00:17;;;;;;;9.30;5.20;;;;;;;9.97;83.40;98210.23;105348;1257;73023;-23
2023/04/14 04:03:07;;;;;;;7.40;4.00;;;;;;;9.79;84.51;98214.66;105349;1262;75642;-23
2023/04/14 04:05:39;;;;;;;14.20;4.40;;;;;;;10.26;84.39;98215.45;105133;1259;74186;-23
2023/04/14 04:08:07;;;;;;;8.40;5.00;;;;;;;10.63;83.16;98220.98;105233;1258;61176;-23
2023/04/14 04:10:36;;;;;;;9.80;5.10;;;;;;;10.58;82.76;98225.98;105474;1257;61679;-23
2023/04/14 04:13:10;;;;;;;8.60;5.20;;;;;;;10.37;83.01;98229.85;105576;1262;74829;-23
2023/04/14 04:15:40;;;;;;;10.60;6.80;;;;;;;10.12;83.63;98235.05;105321;1257;76052;-24
2023/04/14 04:18:10;;;;;;;10.20;5.80;;;;;;;9.85;85.24;98235.42;105547;1263;73021;-24
2023/04/14 04:20:39;;;;;;;12.10;8.50;;;;;;;10.13;85.99;98235.15;105371;1264;61180;-24
2023/04/14 04:23:08;;;;;;;17.80;12.50;;;;;;;10.48;83.87;98234.02;105159;1263;61626;-24
2023/04/14 04:25:37;;;;;;;17.90;12.30;;;;;;;10.50;83.67;98231.45;105618;1257;74384;-24
2023/04/14 04:28:11;;;;;;;16.00;11.50;;;;;;;10.23;84.20;98232.70;105626;1261;75625;-23
2023/04/14 04:30:40;;;;;;;14.00;9.80;;;;;;;10.10;84.33;98233.74;105573;1262;74049;-23
2023/04/14 04:33:10;;;;;;;9.90;6.60;;;;;;;9.85;85.91;98236.20;105600;1262;63284;-24
2023/04/14 04:35:40;;;;;;;9.10;6.20;;;;;;;10.25;85.77;98243.80;105366;1264;61945;-24
2023/04/14 04:38:10;;;;;;;13.20;6.50;;;;;;;10.69;83.57;98243.84;105382;1258;72463;-23
2023/04/14 04:40:41;;;;;;;9.90;6.10;;;;;;;10.70;82.85;98249.52;105274;1266;76291;-23
2023/04/14 04:43:18;;;;;;;18.20;8.60;;;;;;;10.50;83.28;98252.77;105375;1262;73952;-27
2023/04/14 04:46:07;;;;;;;13.20;7.80;;;;;;;10.25;84.00;98253.88;105222;1263;61167;-23
2023/04/14 04:48:36;;;;;;;8.80;5.40;;;;;;;9.90;85.72;98258.79;105236;1257;61073;-24
2023/04/14 04:51:06;;;;;;;6.20;3.70;;;;;;;9.71;86.46;98262.52;105581;1263;74460;-24
2023/04/14 04:53:35;;;;;;;8.60;3.60;;;;;;;10.18;86.12;98273.02;105449;1263;75895;-23
2023/04/14 04:56:07;;;;;;;17.90;8.90;;;;;;;10.54;83.77;98275.36;105557;1262;74210;-24
2023/04/14 04:58:36;;;;;;;22.50;13.30;;;;;;;10.18;84.29;98275.09;105374;1257;62289;-24
2023/04/14 05:01:09;;;;;;;12.70;8.40;;;;;;;9.76;86.13;98274.36;105563;1262;61862;-23
2023/04/14 05:03:39;;;;;;;16.00;10.70;;;;;;;9.50;87.95;98277.42;105163;1257;74572;-24
2023/04/14 05:06:08;;;;;;;14.40;8.30;;;;;;;9.41;88.77;98278.02;105551;1263;73917;-23
2023/04/14 05:08:40;;;;;;;36.40;21.40;;;;;;;9.86;87.06;98278.40;105597;1257;74192;-23
2023/04/14 05:11:08;;;;;;;30.10;16.40;;;;;;;9.75;87.04;98274.15;105361;1263;62448;-23
2023/04/14 05:13:37;;;;;;;21.00;11.40;;;;;;;9.66;88.29;98272.18;105304;1263;61877;-24
2023/04/14 05:16:09;;;;;;;11.00;6.30;;;;;;;9.58;88.47;98276.03;105625;1263;73681;-24
2023/04/14 05:18:41;;;;;;;11.20;7.20;;;;;;;9.48;88.97;98279.00;105360;1262;75866;-23
2023/04/14 05:21:11;;;;;;;10.60;6.90;;;;;;;9.54;88.76;98280.34;105544;1262;74494;-24
2023/04/14 05:23:42;;;;;;;8.70;4.90;;;;;;;9.35;88.90;98280.61;105353;1265;63794;-23
2023/04/14 05:26:15;;;;;;;12.50;6.80;;;;;;;9.85;87.57;98279.98;105161;1264;61176;-24
2023/04/14 05:28:47;;;;;;;9.20;5.60;;;;;;;10.03;85.77;98278.39;105412;1263;75323;-24
2023/04/14 05:31:15;;;;;;;9.20;4.70;;;;;;;10.16;85.12;98273.40;105567;1263;74427;-24
2023/04/14 05:33:44;;;;;;;6.80;4.00;;;;;;;10.05;85.03;98273.05;105568;1262;74050;-24
2023/04/14 05:36:13;;;;;;;6.80;5.10;;;;;;;9.73;86.34;98277.82;105674;1261;61638;-23
2023/04/14 05:38:42;;;;;;;10.20;3.80;;;;;;;9.60;86.63;98271.86;105647;1263;61785;-24
2023/04/14 05:41:11;;;;;;;5.00;3.50;;;;;;;9.72;86.99;98277.51;105608;1257;75339;-24
2023/04/14 05:43:41;;;;;;;9.10;5.10;;;;;;;9.91;85.74;98281.70;105444;1263;74948;-23
2023/04/14 05:46:10;;;;;;;6.40;3.90;;;;;;;9.92;85.77;98280.36;105447;1263;73950;-24
2023/04/14 05:48:40;;;;;;;9.20;4.10;;;;;;;9.87;85.32;98281.38;105303;1258;61077;-23
2023/04/14 05:51:09;;;;;;;15.20;6.20;;;;;;;9.60;86.53;98280.48;105450;1270;61577;-23
2023/04/14 05:53:37;;;;;;;8.10;5.20;;;;;;;9.54;87.23;98281.58;105579;1263;75382;-23
2023/04/14 05:56:08;;;;;;;8.00;5.10;;;;;;;9.89;85.89;98277.05;105644;1263;75409;-23
2023/04/14 05:58:37;;;;;;;8.40;4.90;;;;;;;10.20;83.96;98282.06;105591;1259;73718;-24
2023/04/14 06:01:10;;;;;;;16.80;5.30;;;;;;;10.29;83.02;98278.41;105250;1257;61888;-24
2023/04/14 06:03:39;;;;;;;7.30;4.60;;;;;;;10.01;82.87;98280.95;105228;1271;61609;-24
2023/04/14 06:06:08;;;;;;;7.70;5.20;;;;;;;9.83;83.73;98278.61;105901;1254;74451;-24
2023/04/14 06:08:38;;;;;;;7.10;4.30;;;;;;;9.61;85.18;98275.55;105888;1258;75670;-23
2023/04/14 06:11:06;;;;;;;9.80;5.20;;;;;;;9.99;84.80;98281.49;105749;1255;74167;-24
2023/04/14 06:13:35;;;;;;;8.10;4.80;;;;;;;10.36;82.67;98276.59;105857;1263;61916;-24
2023/04/14 06:16:04;;;;;;;7.90;5.00;;;;;;;10.35;81.91;98272.88;105622;1260;61604;-23
2023/04/14 06:18:39;;;;;;;17.60;7.00;;;;;;;10.18;81.88;98269.42;105671;1260;74854;-23
2023/04/14 06:21:07;;;;;;;10.90;7.20;;;;;;;9.79;83.49;98274.14;105840;1254;75816;-23
2023/04/14 06:23:36;;;;;;;10.10;5.90;;;;;;;9.53;84.92;98273.89;105834;1260;74445;-23
2023/04/14 06:26:07;;;;;;;12.50;6.50;;;;;;;10.20;83.61;98278.59;105623;1261;61786;-24
2023/04/14 06:28:37;;;;;;;12.70;7.70;;;;;;;10.52;80.92;98273.91;105879;1260;61112;-24
2023/04/14 06:31:06;;;;;;;11.10;6.20;;;;;;;10.19;81.20;98272.81;105909;1254;74379;-24
2023/04/14 06:33:34;;;;;;;15.00;6.20;;;;;;;9.80;83.95;98275.29;105898;1254;75771;-23
2023/04/14 06:36:04;;;;;;;12.60;6.70;;;;;;;9.84;83.50;98276.97;105906;1254;73543;-24
2023/04/14 06:38:34;;;;;;;10.50;5.40;;;;;;;9.54;84.52;98276.68;105616;1255;62130;-23
2023/04/14 06:41:03;;;;;;;11.20;5.30;;;;;;;9.57;84.31;98275.02;105746;1259;61901;-24
2023/04/14 06:43:33;;;;;;;11.10;5.80;;;;;;;9.86;82.61;98278.38;105651;1259;75459;-23
2023/04/14 06:46:01;;;;;;;8.30;5.40;;;;;;;9.85;82.51;98281.25;105640;1260;75954;-22
2023/04/14 06:48:30;;;;;;;7.00;3.90;;;;;;;9.72;82.48;98282.25;105558;1260;73946;-23
2023/04/14 06:51:00;;;;;;;12.90;6.80;;;;;;;9.37;83.16;98279.20;105614;1254;61524;-23
2023/04/14 06:53:28;;;;;;;11.00;5.60;;;;;;;9.32;83.60;98283.32;105704;1254;61877;-23
2023/04/14 06:56:00;;;;;;;16.40;8.20;;;;;;;9.73;82.00;98282.14;105665;1254;75382;-22
2023/04/14 06:58:29;;;;;;;7.90;5.60;;;;;;;9.86;80.76;98281.84;105686;1254;75889;-23
2023/04/14 07:01:00;;;;;;;14.10;6.20;;;;;;;9.66;81.54;98278.23;105803;1260;73817;-23
2023/04/14 07:03:29;;;;;;;10.60;6.70;;;;;;;9.54;81.74;98284.67;105473;1254;61747;-23
2023/04/14 07:06:03;;;;;;;11.00;4.50;;;;;;;9.29;82.78;98283.23;105706;1259;61097;-22
2023/04/14 07:08:33;;;;;;;8.10;4.20;;;;;;;9.14;83.37;98288.67;105707;1260;75352;-22
2023/04/14 07:11:03;;;;;;;9.00;5.00;;;;;;;9.50;82.51;98290.06;105868;1267;76021;-22
2023/04/14 07:13:33;;;;;;;12.30;6.10;;;;;;;9.80;80.96;98287.57;105691;1260;73176;-24
2023/04/14 07:16:06;;;;;;;13.10;6.10;;;;;;;9.67;80.75;98289.73;105846;1255;61981;-23
2023/04/14 07:18:35;;;;;;;14.20;6.50;;;;;;;9.47;81.57;98295.55;105743;1260;61186;-24
2023/04/14 07:21:04;;;;;;;17.00;6.50;;;;;;;9.37;82.01;98297.60;105717;1260;75350;-23
2023/04/14 07:23:33;;;;;;;11.70;5.20;;;;;;;9.23;82.21;98299.38;105887;1259;75595;-23
2023/04/14 07:26:02;;;;;;;6.60;4.50;;;;;;;9.61;81.34;98298.10;105732;1260;73266;-24
2023/04/14 07:28:31;;;;;;;12.60;6.30;;;;;;;9.82;79.38;98300.60;105878;1257;62612;-23
2023/04/14 07:31:09;;;;;;;7.70;5.40;;;;;;;9.70;79.64;98307.52;105700;1259;61393;-24
2023/04/14 07:33:39;;;;;;;11.40;5.90;;;;;;;9.60;79.81;98307.20;105879;1254;74248;-23
2023/04/14 07:36:08;;;;;;;10.10;6.20;;;;;;;9.30;80.76;98310.01;105916;1254;74853;-24
2023/04/14 07:38:36;;;;;;;5.00;3.30;;;;;;;9.24;81.88;98308.59;105746;1256;73053;-23
2023/04/14 07:41:05;;;;;;;6.20;3.30;;;;;;;9.73;80.21;98311.27;105783;1258;61452;-24
2023/04/14 07:43:34;;;;;;;8.60;4.70;;;;;;;10.15;78.38;98313.36;105758;1258;61815;-23
2023/04/14 07:46:04;;;;;;;7.80;5.00;;;;;;;10.08;77.71;98312.08;105705;1253;75521;-23
2023/04/14 07:48:33;;;;;;;10.70;5.70;;;;;;;9.80;78.20;98316.91;105763;1258;75708;-23
2023/04/14 07:51:08;;;;;;;14.50;5.80;;;;;;;9.61;79.21;98318.08;105623;1260;74055;-24
2023/04/14 07:53:42;;;;;;;11.70;5.10;;;;;;;9.40;79.40;98317.06;105604;1257;61272;-24
2023/04/14 07:56:11;;;;;;;3.90;3.00;;;;;;;9.34;80.19;98316.40;105740;1258;61588;-23
2023/04/14 07:58:41;;;;;;;10.30;4.20;;;;;;;9.91;78.33;98317.48;105690;1259;74963;-24
2023/04/14 08:01:10;;;;;;;8.30;4.40;;;;;;;10.16;76.95;98316.89;105777;1257;74871;-24
2023/04/14 08:03:39;;;;;;;7.40;5.10;;;;;;;10.17;76.40;98316.80;105855;1255;73983;-23
2023/04/14 08:06:12;;;;;;;10.10;4.60;;;;;;;10.02;76.71;98318.69;105723;1256;61109;-23
2023/04/14 08:08:42;;;;;;;6.40;4.10;;;;;;;9.82;77.34;98319.64;105878;1258;61860;-24
2023/04/14 08:11:11;;;;;;;7.70;4.00;;;;;;;9.60;77.93;98326.22;105863;1254;75289;-24
2023/04/14 08:13:39;;;;;;;7.30;3.10;;;;;;;9.62;78.79;98326.94;105862;1257;75400;-23
2023/04/14 08:16:12;;;;;;;6.80;4.10;;;;;;;10.28;76.58;98320.73;105792;1255;73932;-24
2023/04/14 08:18:42;;;;;;;10.80;6.40;;;;;;;10.38;74.65;98320.52;105792;1257;61854;-24
2023/04/14 08:21:11;;;;;;;9.60;5.60;;;;;;;10.21;74.59;98325.30;105624;1260;61546;-23
2023/04/14 08:23:46;;;;;;;5.50;3.90;;;;;;;9.94;75.69;98320.95;105578;1256;75325;-23
2023/04/14 08:26:15;;;;;;;7.00;3.90;;;;;;;9.95;75.91;98323.99;105514;1260;75820;-24
2023/04/14 08:28:45;;;;;;;9.00;4.80;;;;;;;9.86;75.82;98320.99;105746;1254;74070;-23
2023/04/14 08:31:15;;;;;;;6.40;4.00;;;;;;;9.78;76.28;98321.23;105600;1254;62467;-23
2023/04/14 08:33:44;;;;;;;6.70;4.50;;;;;;;10.25;75.96;98323.09;105714;1257;62015;-24
2023/04/14 08:36:13;;;;;;;6.40;4.60;;;;;;;10.60;74.54;98319.73;105740;1253;75387;-23
2023/04/14 08:38:45;;;;;;;5.20;3.90;;;;;;;10.63;73.94;98324.77;105889;1257;76183;-24
2023/04/14 08:41:14;;;;;;;9.20;4.60;;;;;;;10.59;73.73;98323.65;105620;1254;72707;-24
2023/04/14 08:43:43;;;;;;;9.60;5.00;;;;;;;10.42;74.67;98328.16;105529;1254;61017;-24
2023/04/14 08:46:16;;;;;;;6.80;2.80;;;;;;;10.32;74.43;98324.85;105668;1259;61585;-24
2023/04/14 08:48:46;;;;;;;4.80;2.80;;;;;;;10.48;74.69;98324.25;105680;1259;75358;-23
2023/04/14 08:51:27;;;;;;;4.80;3.50;;;;;;;10.88;72.75;98325.65;105690;1264;76002;-25
2023/04/14 08:53:56;;;;;;;5.40;3.50;;;;;;;10.90;71.85;98323.34;105659;1254;74004;-24
2023/04/14 08:56:27;;;;;;;6.80;3.20;;;;;;;10.79;72.19;98324.73;105694;1254;61148;-24
2023/04/14 08:58:56;;;;;;;7.60;3.60;;;;;;;10.64;72.27;98327.67;105377;1259;62227;-24
2023/04/14 09:01:29;;;;;;;6.50;3.30;;;;;;;10.50;73.36;98328.64;105814;1255;75373;-23
2023/04/14 09:04:03;;;;;;;6.00;3.00;;;;;;;10.36;73.17;98333.15;105617;1258;74020;-24
2023/04/14 09:06:33;;;;;;;7.80;3.20;;;;;;;10.50;72.89;98332.29;105581;1255;74362;-24
2023/04/14 09:09:06;;;;;;;5.10;3.40;;;;;;;10.96;71.48;98334.81;105555;1254;61197;-24
2023/04/14 09:11:35;;;;;;;6.10;3.70;;;;;;;11.07;70.68;98336.14;105403;1259;61869;-23
2023/04/14 09:14:04;;;;;;;6.20;2.90;;;;;;;10.98;70.12;98335.13;105696;1257;75159;-24
2023/04/14 09:16:33;;;;;;;4.90;3.20;;;;;;;10.87;70.52;98328.64;105668;1259;75221;-24
2023/04/14 09:19:03;;;;;;;6.80;3.00;;;;;;;10.76;70.57;98329.03;105620;1254;74075;-24
2023/04/14 09:21:38;;;;;;;6.50;3.30;;;;;;;10.77;71.10;98331.55;105702;1254;61189;-24
2023/04/14 09:24:28;;;;;;;3.90;2.00;;;;;;;10.73;71.05;98329.47;105716;1254;61857;-23
2023/04/14 09:27:04;;;;;;;6.40;2.20;;;;;;;10.99;70.11;98328.94;105690;1261;74405;-24
2023/04/14 09:29:32;;;;;;;3.60;2.90;;;;;;;11.35;68.54;98332.64;105749;1259;75896;-24
2023/04/14 09:32:10;;;;;;;4.70;2.60;;;;;;;11.45;67.75;98330.83;105849;1253;72765;-24
2023/04/14 09:34:52;;;;;;;4.90;2.60;;;;;;;11.42;67.87;98330.89;105685;1254;62185;-24
2023/04/14 09:37:25;;;;;;;7.10;3.00;;;;;;;11.24;68.15;98337.52;105722;1253;62146;-24
2023/04/14 09:39:56;;;;;;;8.80;3.80;;;;;;;10.82;70.21;98339.06;105848;1257;74043;-22
2023/04/14 09:42:38;;;;;;;9.00;5.10;;;;;;;10.65;70.72;98343.02;105835;1258;74075;-23
2023/04/14 09:45:08;;;;;;;6.70;4.60;;;;;;;10.37;71.17;98342.92;105658;1254;72465;-23
2023/04/14 09:47:38;;;;;;;4.70;3.00;;;;;;;10.25;71.05;98344.42;105559;1259;62184;-23
2023/04/14 09:50:08;;;;;;;2.80;2.20;;;;;;;10.23;71.63;98344.73;105693;1260;62067;-23
2023/04/14 09:52:40;;;;;;;4.00;2.10;;;;;;;10.54;69.90;98343.02;105482;1254;75741;-23
2023/04/14 09:55:16;;;;;;;4.70;2.50;;;;;;;10.93;68.11;98348.19;105662;1259;75824;-23
2023/04/14 09:57:50;;;;;;;3.60;2.50;;;;;;;10.95;68.09;98353.09;105646;1255;74218;-23
2023/04/14 10:00:21;;;;;;;;;;;;;;;10.79;68.86;98358.27;105873;1254;62067;-23
2023/04/14 10:03:09;;;;;;;1.70;1.30;;;;;;;10.48;68.92;98360.54;105545;1256;61650;-23
2023/04/14 10:05:38;;;;;;;4.80;2.70;;;;;;;10.28;69.31;98369.67;105729;1257;74534;-23
2023/04/14 10:08:06;;;;;;;3.00;1.60;;;;;;;10.08;69.94;98372.46;105779;1254;75855;-23
2023/04/14 10:10:35;;;;;;;5.20;2.60;;;;;;;9.92;70.58;98375.79;105880;1254;74215;-23
2023/04/14 10:13:07;;;;;;;3.80;2.60;;;;;;;9.79;71.49;98377.81;105854;1257;61926;-23
2023/04/14 10:15:38;;;;;;;3.80;2.50;;;;;;;9.98;71.80;98378.16;105756;1257;61680;-23
2023/04/14 10:18:07;;;;;;;4.00;3.20;;;;;;;10.63;70.27;98378.60;105816;1254;75181;-23
2023/04/14 10:28:15;;;;;;;4.50;3.00;;;;;;;10.57;70.18;98382.01;102625;1293;600329;-24
2023/04/14 10:30:45;;;;;;;4.30;3.30;;;;;;;10.43;70.33;98385.31;104797;1267;61503;-24
2023/04/14 10:33:14;;;;;;;5.70;3.60;;;;;;;10.21;70.93;98388.25;104862;1271;61731;-25
2023/04/14 10:35:45;;;;;;;9.60;4.50;;;;;;;10.14;71.33;98387.84;104824;1266;73801;-24
2023/04/14 10:38:15;;;;;;;7.30;4.50;;;;;;;9.90;72.35;98389.84;104859;1271;75815;-22
2023/04/14 10:40:47;;;;;;;3.90;2.60;;;;;;;9.99;72.15;98389.33;103077;1272;2367383;-25
2023/04/14 10:43:16;;;;;;;3.10;2.60;;;;;;;10.64;70.21;98390.10;104960;1269;61291;-24
2023/04/14 10:45:57;;;;;;;4.80;2.70;;;;;;;10.85;69.04;98387.56;104799;1269;61817;-24
2023/04/14 10:48:31;;;;;;;4.00;2.60;;;;;;;10.76;68.45;98388.86;104854;1273;73682;-24
2023/04/14 10:51:04;;;;;;;2.80;2.30;;;;;;;10.65;68.95;98391.48;104763;1269;74883;-24
2023/04/14 10:53:45;;;;;;;5.20;3.30;;;;;;;10.55;69.09;98390.30;104755;1270;73055;-24
2023/04/14 10:56:14;;;;;;;3.60;2.70;;;;;;;10.39;69.45;98387.71;104743;1266;61744;-25
2023/04/14 10:58:53;;;;;;;4.40;3.40;;;;;;;10.21;69.70;98391.70;104824;1270;61837;-23
2023/04/14 11:01:25;;;;;;;4.00;2.90;;;;;;;10.07;69.86;98392.63;104788;1269;72462;-23
2023/04/14 11:03:55;;;;;;;3.80;2.60;;;;;;;9.94;70.30;98390.71;104794;1269;74924;-24
2023/04/14 11:07:00;;;;;;;4.30;3.10;;;;;;;10.12;70.55;98390.13;104954;1266;74225;-24
2023/04/14 11:09:35;;;;;;;4.80;1.90;;;;;;;10.70;68.95;98391.18;104614;1274;62115;-24
2023/04/14 11:12:26;;;;;;;3.50;2.40;;;;;;;10.83;67.66;98396.18;104666;1275;61174;-24
2023/04/14 11:15:02;;;;;;;7.50;3.00;;;;;;;10.79;68.04;98393.46;104715;1270;74572;-24
2023/04/14 11:17:32;;;;;;;4.00;1.70;;;;;;;10.65;68.39;98391.45;104601;1275;75052;-23
2023/04/14 11:20:01;;;;;;;4.20;2.60;;;;;;;10.57;68.66;98392.87;104601;1269;74206;-23
2023/04/14 11:22:42;;;;;;;4.60;2.90;;;;;;;10.52;69.08;98385.85;104563;1276;62018;-23
2023/04/14 11:25:12;;;;;;;3.60;3.00;;;;;;;10.50;69.20;98381.73;104607;1269;61105;-23
2023/04/14 11:27:41;;;;;;;4.00;2.40;;;;;;;10.42;69.52;98379.09;104539;1275;75546;-23
2023/04/14 11:30:15;;;;;;;3.90;2.50;;;;;;;10.57;69.66;98376.93;104613;1275;75640;-24
2023/04/14 11:32:46;;;;;;;3.30;2.10;;;;;;;11.06;68.13;98374.50;104565;1270;73214;-23
2023/04/14 11:35:15;;;;;;;2.90;2.20;;;;;;;11.42;67.13;98375.11;104500;1275;61205;-24
2023/04/14 11:37:44;;;;;;;5.30;2.60;;;;;;;11.46;66.18;98377.85;104658;1275;62005;-23
2023/04/14 11:40:14;;;;;;;5.40;2.40;;;;;;;11.32;66.60;98372.89;105214;1265;73648;-24
2023/04/14 11:42:52;;;;;;;4.80;2.70;;;;;;;11.06;67.30;98380.06;105330;1264;76085;-24
2023/04/14 11:45:20;;;;;;;4.00;2.60;;;;;;;10.95;67.51;98375.86;105691;1253;72509;-24
2023/04/14 11:48:03;;;;;;;3.70;2.80;;;;;;;10.75;68.25;98375.98;105733;1258;61739;-24
2023/04/14 11:50:33;;;;;;;3.30;2.40;;;;;;;10.57;68.40;98369.83;105699;1261;61911;-24
2023/04/14 11:53:06;;;;;;;3.90;2.50;;;;;;;10.43;69.18;98369.64;105541;1261;74581;-23
2023/04/14 11:55:35;;;;;;;2.60;2.00;;;;;;;10.41;69.23;98370.57;105656;1260;74962;-23
2023/04/14 11:58:03;;;;;;;4.10;2.70;;;;;;;10.65;69.32;98369.08;105752;1259;73413;-23
2023/04/14 12:00:33;;;;;;;4.40;2.50;;;;;;;11.13;66.77;98367.95;105822;1257;61049;-22